sensor_id;sensor_type;location;lat;lon;timestamp;P1;durP1;ratioP1;P2;durP2;ratioP2
25175;SDS011;13135;55.166;61.286;2023-05-10T00:01:52;121.90;;;71.47;;
25175;SDS011;13135;55.166;61.286;2023-05-10T00:04:33;120.60;;;71.80;;
25175;SDS011;13135;55.166;61.286;2023-05-10T00:07:17;123.30;;;70.73;;
25175;SDS011;13135;55.166;61.286;2023-05-10T00:10:01;125.07;;;70.30;;
25175;SDS011;13135;55.166;61.286;2023-05-10T00:12:43;130.07;;;73.17;;
25175;SDS011;13135;55.166;61.286;2023-05-10T00:15:27;128.80;;;72.93;;
25175;SDS011;13135;55.166;61.286;2023-05-10T00:18:13;134.30;;;75.30;;
25175;SDS011;13135;55.166;61.286;2023-05-10T00:20:53;132.97;;;74.20;;
25175;SDS011;13135;55.166;61.286;2023-05-10T00:23:37;133.23;;;74.63;;
25175;SDS011;13135;55.166;61.286;2023-05-10T00:26:21;122.40;;;69.97;;
25175;SDS011;13135;55.166;61.286;2023-05-10T00:29:02;118.63;;;69.47;;
25175;SDS011;13135;55.166;61.286;2023-05-10T00:31:43;137.50;;;74.70;;
25175;SDS011;13135;55.166;61.286;2023-05-10T00:34:25;137.37;;;78.97;;
25175;SDS011;13135;55.166;61.286;2023-05-10T00:37:12;136.00;;;78.60;;
25175;SDS011;13135;55.166;61.286;2023-05-10T00:39:59;125.97;;;75.53;;
25175;SDS011;13135;55.166;61.286;2023-05-10T00:42:39;135.77;;;77.77;;
25175;SDS011;13135;55.166;61.286;2023-05-10T00:45:23;133.00;;;78.17;;
25175;SDS011;13135;55.166;61.286;2023-05-10T00:48:04;136.60;;;74.53;;
25175;SDS011;13135;55.166;61.286;2023-05-10T00:50:45;137.10;;;78.07;;
25175;SDS011;13135;55.166;61.286;2023-05-10T00:53:27;124.13;;;73.40;;
25175;SDS011;13135;55.166;61.286;2023-05-10T00:56:11;123.10;;;72.20;;
25175;SDS011;13135;55.166;61.286;2023-05-10T00:58:56;129.73;;;74.63;;
25175;SDS011;13135;55.166;61.286;2023-05-10T01:01:37;135.07;;;77.53;;
25175;SDS011;13135;55.166;61.286;2023-05-10T01:04:21;136.43;;;74.50;;
25175;SDS011;13135;55.166;61.286;2023-05-10T01:07:04;133.10;;;78.17;;
25175;SDS011;13135;55.166;61.286;2023-05-10T01:09:44;128.63;;;77.83;;
25175;SDS011;13135;55.166;61.286;2023-05-10T01:12:28;134.93;;;77.13;;
25175;SDS011;13135;55.166;61.286;2023-05-10T01:15:10;129.07;;;77.03;;
25175;SDS011;13135;55.166;61.286;2023-05-10T01:17:52;138.40;;;80.00;;
25175;SDS011;13135;55.166;61.286;2023-05-10T01:20:39;145.80;;;81.80;;
25175;SDS011;13135;55.166;61.286;2023-05-10T01:32:34;138.87;;;81.03;;
25175;SDS011;13135;55.166;61.286;2023-05-10T01:35:29;141.80;;;83.57;;
25175;SDS011;13135;55.166;61.286;2023-05-10T01:41:17;137.77;;;80.67;;
25175;SDS011;13135;55.166;61.286;2023-05-10T01:44:06;137.90;;;81.97;;
25175;SDS011;13135;55.166;61.286;2023-05-10T01:47:04;143.80;;;83.27;;
25175;SDS011;13135;55.166;61.286;2023-05-10T01:49:54;147.07;;;84.73;;
25175;SDS011;13135;55.166;61.286;2023-05-10T01:52:47;139.03;;;84.77;;
25175;SDS011;13135;55.166;61.286;2023-05-10T01:55:30;143.37;;;84.03;;
25175;SDS011;13135;55.166;61.286;2023-05-10T01:58:17;156.80;;;86.70;;
25175;SDS011;13135;55.166;61.286;2023-05-10T02:01:03;147.50;;;85.43;;
25175;SDS011;13135;55.166;61.286;2023-05-10T02:03:47;139.77;;;83.33;;
25175;SDS011;13135;55.166;61.286;2023-05-10T02:06:29;144.90;;;82.00;;
25175;SDS011;13135;55.166;61.286;2023-05-10T02:09:11;136.37;;;80.47;;
25175;SDS011;13135;55.166;61.286;2023-05-10T02:11:55;140.30;;;82.03;;
25175;SDS011;13135;55.166;61.286;2023-05-10T02:14:48;139.30;;;81.30;;
25175;SDS011;13135;55.166;61.286;2023-05-10T02:17:35;135.17;;;81.37;;
25175;SDS011;13135;55.166;61.286;2023-05-10T02:20:19;145.57;;;85.40;;
25175;SDS011;13135;55.166;61.286;2023-05-10T02:23:06;137.73;;;84.40;;
25175;SDS011;13135;55.166;61.286;2023-05-10T02:25:48;143.73;;;82.47;;
25175;SDS011;13135;55.166;61.286;2023-05-10T02:28:31;141.73;;;79.30;;
25175;SDS011;13135;55.166;61.286;2023-05-10T02:31:12;135.93;;;79.77;;
25175;SDS011;13135;55.166;61.286;2023-05-10T02:33:54;131.33;;;78.67;;
25175;SDS011;13135;55.166;61.286;2023-05-10T02:36:41;118.05;;;69.85;;
25175;SDS011;13135;55.166;61.286;2023-05-10T02:39:26;125.27;;;72.23;;
25175;SDS011;13135;55.166;61.286;2023-05-10T02:42:16;122.77;;;75.03;;
25175;SDS011;13135;55.166;61.286;2023-05-10T02:45:00;113.87;;;71.70;;
25175;SDS011;13135;55.166;61.286;2023-05-10T02:47:43;117.62;;;70.72;;
25175;SDS011;13135;55.166;61.286;2023-05-10T02:50:27;113.07;;;69.10;;
25175;SDS011;13135;55.166;61.286;2023-05-10T02:53:11;118.17;;;65.93;;
25175;SDS011;13135;55.166;61.286;2023-05-10T02:55:53;108.00;;;64.30;;
25175;SDS011;13135;55.166;61.286;2023-05-10T02:58:34;111.93;;;64.93;;
25175;SDS011;13135;55.166;61.286;2023-05-10T03:01:16;115.37;;;65.33;;
25175;SDS011;13135;55.166;61.286;2023-05-10T03:06:58;113.47;;;66.03;;
25175;SDS011;13135;55.166;61.286;2023-05-10T03:09:42;103.75;;;64.12;;
25175;SDS011;13135;55.166;61.286;2023-05-10T03:12:35;104.23;;;64.30;;
25175;SDS011;13135;55.166;61.286;2023-05-10T03:15:25;108.43;;;62.70;;
25175;SDS011;13135;55.166;61.286;2023-05-10T03:18:28;99.70;;;58.87;;
25175;SDS011;13135;55.166;61.286;2023-05-10T03:21:11;96.23;;;56.07;;
25175;SDS011;13135;55.166;61.286;2023-05-10T03:23:58;83.87;;;51.53;;
25175;SDS011;13135;55.166;61.286;2023-05-10T03:26:46;81.43;;;51.42;;
25175;SDS011;13135;55.166;61.286;2023-05-10T03:29:32;84.57;;;49.38;;
25175;SDS011;13135;55.166;61.286;2023-05-10T03:32:17;84.33;;;50.30;;
25175;SDS011;13135;55.166;61.286;2023-05-10T03:35:08;90.77;;;52.20;;
25175;SDS011;13135;55.166;61.286;2023-05-10T03:37:54;86.32;;;49.92;;
25175;SDS011;13135;55.166;61.286;2023-05-10T03:40:38;78.00;;;47.92;;
25175;SDS011;13135;55.166;61.286;2023-05-10T03:46:27;71.20;;;41.90;;
25175;SDS011;13135;55.166;61.286;2023-05-10T03:49:10;69.30;;;40.95;;
25175;SDS011;13135;55.166;61.286;2023-05-10T03:51:54;66.78;;;39.60;;
25175;SDS011;13135;55.166;61.286;2023-05-10T03:54:41;128.47;;;74.03;;
25175;SDS011;13135;55.166;61.286;2023-05-10T03:57:28;57.90;;;37.50;;
25175;SDS011;13135;55.166;61.286;2023-05-10T04:00:15;57.88;;;38.53;;
25175;SDS011;13135;55.166;61.286;2023-05-10T04:02:58;59.80;;;37.50;;
25175;SDS011;13135;55.166;61.286;2023-05-10T04:05:41;44.78;;;26.95;;
25175;SDS011;13135;55.166;61.286;2023-05-10T04:08:24;44.08;;;27.08;;
25175;SDS011;13135;55.166;61.286;2023-05-10T04:11:11;43.55;;;26.50;;
25175;SDS011;13135;55.166;61.286;2023-05-10T04:13:57;40.90;;;23.85;;
25175;SDS011;13135;55.166;61.286;2023-05-10T04:16:42;33.72;;;19.98;;
25175;SDS011;13135;55.166;61.286;2023-05-10T04:19:29;28.15;;;18.42;;
25175;SDS011;13135;55.166;61.286;2023-05-10T04:22:16;24.70;;;15.85;;
25175;SDS011;13135;55.166;61.286;2023-05-10T04:25:01;24.12;;;16.10;;
25175;SDS011;13135;55.166;61.286;2023-05-10T04:27:41;30.65;;;16.77;;
25175;SDS011;13135;55.166;61.286;2023-05-10T04:30:26;19.80;;;12.88;;
25175;SDS011;13135;55.166;61.286;2023-05-10T04:33:11;20.02;;;13.25;;
25175;SDS011;13135;55.166;61.286;2023-05-10T04:35:55;23.73;;;12.37;;
25175;SDS011;13135;55.166;61.286;2023-05-10T04:38:40;20.88;;;13.25;;
25175;SDS011;13135;55.166;61.286;2023-05-10T04:41:24;24.87;;;14.48;;
25175;SDS011;13135;55.166;61.286;2023-05-10T04:44:09;24.80;;;15.02;;
25175;SDS011;13135;55.166;61.286;2023-05-10T04:46:51;20.25;;;13.05;;
25175;SDS011;13135;55.166;61.286;2023-05-10T04:49:38;21.70;;;13.05;;
25175;SDS011;13135;55.166;61.286;2023-05-10T04:52:24;20.08;;;14.38;;
25175;SDS011;13135;55.166;61.286;2023-05-10T04:55:06;28.23;;;14.13;;
25175;SDS011;13135;55.166;61.286;2023-05-10T04:57:52;29.92;;;15.23;;
25175;SDS011;13135;55.166;61.286;2023-05-10T05:00:38;23.17;;;15.18;;
25175;SDS011;13135;55.166;61.286;2023-05-10T05:03:25;21.35;;;14.98;;
25175;SDS011;13135;55.166;61.286;2023-05-10T05:06:08;22.67;;;14.60;;
25175;SDS011;13135;55.166;61.286;2023-05-10T05:08:55;20.02;;;13.57;;
25175;SDS011;13135;55.166;61.286;2023-05-10T05:11:40;14.32;;;9.50;;
25175;SDS011;13135;55.166;61.286;2023-05-10T05:14:27;12.35;;;9.10;;
25175;SDS011;13135;55.166;61.286;2023-05-10T05:17:17;16.30;;;10.65;;
25175;SDS011;13135;55.166;61.286;2023-05-10T05:20:03;15.82;;;8.60;;
25175;SDS011;13135;55.166;61.286;2023-05-10T05:22:52;13.65;;;10.07;;
25175;SDS011;13135;55.166;61.286;2023-05-10T05:25:39;16.30;;;8.80;;
25175;SDS011;13135;55.166;61.286;2023-05-10T05:28:23;15.77;;;10.65;;
25175;SDS011;13135;55.166;61.286;2023-05-10T05:31:08;14.65;;;10.65;;
25175;SDS011;13135;55.166;61.286;2023-05-10T05:33:53;15.02;;;9.52;;
25175;SDS011;13135;55.166;61.286;2023-05-10T05:36:36;16.25;;;10.40;;
25175;SDS011;13135;55.166;61.286;2023-05-10T05:39:22;20.52;;;11.40;;
25175;SDS011;13135;55.166;61.286;2023-05-10T05:42:07;14.77;;;10.02;;
25175;SDS011;13135;55.166;61.286;2023-05-10T05:44:53;14.18;;;10.20;;
25175;SDS011;13135;55.166;61.286;2023-05-10T05:47:40;18.90;;;11.52;;
25175;SDS011;13135;55.166;61.286;2023-05-10T05:50:25;16.98;;;11.20;;
25175;SDS011;13135;55.166;61.286;2023-05-10T05:53:11;16.95;;;10.13;;
25175;SDS011;13135;55.166;61.286;2023-05-10T05:55:56;13.18;;;9.48;;
25175;SDS011;13135;55.166;61.286;2023-05-10T05:58:42;18.20;;;10.02;;
25175;SDS011;13135;55.166;61.286;2023-05-10T06:01:29;15.35;;;9.30;;
25175;SDS011;13135;55.166;61.286;2023-05-10T06:04:14;10.80;;;8.60;;
25175;SDS011;13135;55.166;61.286;2023-05-10T06:07:01;12.25;;;7.78;;
25175;SDS011;13135;55.166;61.286;2023-05-10T06:09:44;16.02;;;7.95;;
25175;SDS011;13135;55.166;61.286;2023-05-10T06:12:31;14.27;;;8.30;;
25175;SDS011;13135;55.166;61.286;2023-05-10T06:15:17;11.32;;;7.75;;
25175;SDS011;13135;55.166;61.286;2023-05-10T06:18:00;13.60;;;8.85;;
25175;SDS011;13135;55.166;61.286;2023-05-10T06:20:44;10.73;;;7.65;;
25175;SDS011;13135;55.166;61.286;2023-05-10T06:33:57;12.23;;;7.30;;
25175;SDS011;13135;55.166;61.286;2023-05-10T06:36:44;13.48;;;7.57;;
25175;SDS011;13135;55.166;61.286;2023-05-10T06:39:28;12.20;;;8.07;;
25175;SDS011;13135;55.166;61.286;2023-05-10T06:42:15;12.23;;;8.05;;
25175;SDS011;13135;55.166;61.286;2023-05-10T06:48:17;11.15;;;8.18;;
25175;SDS011;13135;55.166;61.286;2023-05-10T06:51:02;16.25;;;8.93;;
25175;SDS011;13135;55.166;61.286;2023-05-10T06:53:48;16.62;;;9.43;;
25175;SDS011;13135;55.166;61.286;2023-05-10T06:56:35;14.93;;;9.18;;
25175;SDS011;13135;55.166;61.286;2023-05-10T06:59:20;13.77;;;9.27;;
25175;SDS011;13135;55.166;61.286;2023-05-10T07:02:13;12.63;;;8.73;;
25175;SDS011;13135;55.166;61.286;2023-05-10T07:04:59;14.50;;;8.77;;
25175;SDS011;13135;55.166;61.286;2023-05-10T07:07:42;14.85;;;9.63;;
25175;SDS011;13135;55.166;61.286;2023-05-10T07:10:27;13.30;;;8.75;;
25175;SDS011;13135;55.166;61.286;2023-05-10T07:13:14;12.43;;;8.90;;
25175;SDS011;13135;55.166;61.286;2023-05-10T07:15:58;12.63;;;8.75;;
25175;SDS011;13135;55.166;61.286;2023-05-10T07:18:41;12.15;;;8.57;;
25175;SDS011;13135;55.166;61.286;2023-05-10T07:21:25;13.00;;;9.18;;
25175;SDS011;13135;55.166;61.286;2023-05-10T07:24:12;13.52;;;8.77;;
25175;SDS011;13135;55.166;61.286;2023-05-10T07:26:56;11.23;;;7.32;;
25175;SDS011;13135;55.166;61.286;2023-05-10T07:29:41;12.15;;;7.62;;
25175;SDS011;13135;55.166;61.286;2023-05-10T07:32:28;14.23;;;7.78;;
25175;SDS011;13135;55.166;61.286;2023-05-10T07:35:11;11.45;;;7.75;;
25175;SDS011;13135;55.166;61.286;2023-05-10T07:37:55;13.40;;;7.62;;
25175;SDS011;13135;55.166;61.286;2023-05-10T07:40:40;11.88;;;7.25;;
25175;SDS011;13135;55.166;61.286;2023-05-10T07:43:27;11.35;;;6.90;;
25175;SDS011;13135;55.166;61.286;2023-05-10T07:46:10;10.68;;;7.22;;
25175;SDS011;13135;55.166;61.286;2023-05-10T07:48:54;12.37;;;7.50;;
25175;SDS011;13135;55.166;61.286;2023-05-10T07:51:38;10.00;;;7.40;;
25175;SDS011;13135;55.166;61.286;2023-05-10T07:54:23;9.88;;;6.37;;
25175;SDS011;13135;55.166;61.286;2023-05-10T07:57:10;9.15;;;6.20;;
25175;SDS011;13135;55.166;61.286;2023-05-10T07:59:54;10.85;;;6.28;;
25175;SDS011;13135;55.166;61.286;2023-05-10T08:02:40;7.95;;;5.85;;
25175;SDS011;13135;55.166;61.286;2023-05-10T08:05:31;8.70;;;6.12;;
25175;SDS011;13135;55.166;61.286;2023-05-10T08:08:16;8.90;;;5.45;;
25175;SDS011;13135;55.166;61.286;2023-05-10T08:11:03;9.85;;;6.43;;
25175;SDS011;13135;55.166;61.286;2023-05-10T08:13:48;8.55;;;6.15;;
25175;SDS011;13135;55.166;61.286;2023-05-10T08:16:33;14.63;;;9.52;;
25175;SDS011;13135;55.166;61.286;2023-05-10T08:19:18;10.57;;;6.55;;
25175;SDS011;13135;55.166;61.286;2023-05-10T08:22:05;13.38;;;6.12;;
25175;SDS011;13135;55.166;61.286;2023-05-10T08:24:50;12.57;;;6.75;;
25175;SDS011;13135;55.166;61.286;2023-05-10T08:27:38;13.62;;;7.28;;
25175;SDS011;13135;55.166;61.286;2023-05-10T08:30:21;9.30;;;6.57;;
25175;SDS011;13135;55.166;61.286;2023-05-10T08:33:06;8.73;;;6.53;;
25175;SDS011;13135;55.166;61.286;2023-05-10T08:35:49;13.30;;;7.03;;
25175;SDS011;13135;55.166;61.286;2023-05-10T08:38:33;9.63;;;7.30;;
25175;SDS011;13135;55.166;61.286;2023-05-10T08:41:20;8.05;;;6.00;;
25175;SDS011;13135;55.166;61.286;2023-05-10T08:44:07;11.35;;;7.32;;
25175;SDS011;13135;55.166;61.286;2023-05-10T08:46:53;12.07;;;7.43;;
25175;SDS011;13135;55.166;61.286;2023-05-10T08:49:38;11.70;;;7.70;;
25175;SDS011;13135;55.166;61.286;2023-05-10T08:52:22;12.18;;;6.75;;
25175;SDS011;13135;55.166;61.286;2023-05-10T08:55:06;13.75;;;9.13;;
25175;SDS011;13135;55.166;61.286;2023-05-10T08:57:51;9.77;;;6.97;;
25175;SDS011;13135;55.166;61.286;2023-05-10T09:00:38;9.20;;;6.93;;
25175;SDS011;13135;55.166;61.286;2023-05-10T09:03:23;11.65;;;7.75;;
25175;SDS011;13135;55.166;61.286;2023-05-10T09:06:08;10.40;;;6.87;;
25175;SDS011;13135;55.166;61.286;2023-05-10T09:08:50;12.02;;;6.70;;
25175;SDS011;13135;55.166;61.286;2023-05-10T09:11:35;10.43;;;7.07;;
25175;SDS011;13135;55.166;61.286;2023-05-10T09:14:21;10.88;;;6.93;;
25175;SDS011;13135;55.166;61.286;2023-05-10T09:17:06;10.35;;;6.87;;
25175;SDS011;13135;55.166;61.286;2023-05-10T09:19:56;13.68;;;7.45;;
25175;SDS011;13135;55.166;61.286;2023-05-10T09:22:33;10.45;;;6.50;;
25175;SDS011;13135;55.166;61.286;2023-05-10T09:25:19;9.35;;;6.60;;
25175;SDS011;13135;55.166;61.286;2023-05-10T09:28:06;10.27;;;6.70;;
25175;SDS011;13135;55.166;61.286;2023-05-10T09:30:52;10.35;;;6.82;;
25175;SDS011;13135;55.166;61.286;2023-05-10T09:33:43;11.38;;;7.45;;
25175;SDS011;13135;55.166;61.286;2023-05-10T09:36:18;9.05;;;7.00;;
25175;SDS011;13135;55.166;61.286;2023-05-10T09:39:05;8.80;;;6.18;;
25175;SDS011;13135;55.166;61.286;2023-05-10T09:41:49;10.40;;;6.62;;
25175;SDS011;13135;55.166;61.286;2023-05-10T09:44:35;9.13;;;6.75;;
25175;SDS011;13135;55.166;61.286;2023-05-10T09:47:20;16.37;;;7.12;;
25175;SDS011;13135;55.166;61.286;2023-05-10T09:50:15;13.85;;;6.60;;
25175;SDS011;13135;55.166;61.286;2023-05-10T09:53:00;8.35;;;6.53;;
25175;SDS011;13135;55.166;61.286;2023-05-10T09:55:46;14.80;;;7.28;;
25175;SDS011;13135;55.166;61.286;2023-05-10T09:58:31;9.60;;;6.90;;
25175;SDS011;13135;55.166;61.286;2023-05-10T10:01:16;7.25;;;6.30;;
25175;SDS011;13135;55.166;61.286;2023-05-10T10:04:03;12.32;;;7.72;;
25175;SDS011;13135;55.166;61.286;2023-05-10T10:07:04;14.68;;;7.03;;
25175;SDS011;13135;55.166;61.286;2023-05-10T10:09:49;11.05;;;7.07;;
25175;SDS011;13135;55.166;61.286;2023-05-10T10:12:36;11.15;;;7.45;;
25175;SDS011;13135;55.166;61.286;2023-05-10T10:15:27;10.57;;;7.60;;
25175;SDS011;13135;55.166;61.286;2023-05-10T10:18:13;10.82;;;7.37;;
25175;SDS011;13135;55.166;61.286;2023-05-10T10:20:58;18.55;;;8.38;;
25175;SDS011;13135;55.166;61.286;2023-05-10T10:23:45;12.32;;;7.20;;
25175;SDS011;13135;55.166;61.286;2023-05-10T10:26:33;10.18;;;7.18;;
25175;SDS011;13135;55.166;61.286;2023-05-10T10:29:23;9.73;;;7.40;;
25175;SDS011;13135;55.166;61.286;2023-05-10T10:35:23;11.55;;;7.65;;
25175;SDS011;13135;55.166;61.286;2023-05-10T10:38:07;10.60;;;7.93;;
25175;SDS011;13135;55.166;61.286;2023-05-10T10:54:57;11.12;;;7.90;;
25175;SDS011;13135;55.166;61.286;2023-05-10T10:57:44;11.57;;;7.40;;
25175;SDS011;13135;55.166;61.286;2023-05-10T11:00:28;9.75;;;8.45;;
25175;SDS011;13135;55.166;61.286;2023-05-10T11:03:12;10.88;;;7.65;;
25175;SDS011;13135;55.166;61.286;2023-05-10T11:05:58;11.50;;;8.00;;
25175;SDS011;13135;55.166;61.286;2023-05-10T11:08:53;11.70;;;7.80;;
25175;SDS011;13135;55.166;61.286;2023-05-10T11:11:49;13.48;;;8.15;;
25175;SDS011;13135;55.166;61.286;2023-05-10T11:14:35;13.70;;;8.38;;
25175;SDS011;13135;55.166;61.286;2023-05-10T11:17:22;13.18;;;7.72;;
25175;SDS011;13135;55.166;61.286;2023-05-10T11:20:18;9.50;;;7.55;;
25175;SDS011;13135;55.166;61.286;2023-05-10T11:23:11;9.77;;;7.55;;
25175;SDS011;13135;55.166;61.286;2023-05-10T11:25:56;10.45;;;7.32;;
25175;SDS011;13135;55.166;61.286;2023-05-10T11:28:44;13.25;;;8.80;;
25175;SDS011;13135;55.166;61.286;2023-05-10T11:31:28;12.20;;;8.40;;
25175;SDS011;13135;55.166;61.286;2023-05-10T11:37:06;9.90;;;7.00;;
25175;SDS011;13135;55.166;61.286;2023-05-10T11:39:51;14.00;;;7.85;;
25175;SDS011;13135;55.166;61.286;2023-05-10T11:42:37;12.88;;;8.07;;
25175;SDS011;13135;55.166;61.286;2023-05-10T11:45:19;10.77;;;8.05;;
25175;SDS011;13135;55.166;61.286;2023-05-10T11:48:06;12.82;;;7.53;;
25175;SDS011;13135;55.166;61.286;2023-05-10T11:50:51;10.90;;;7.78;;
25175;SDS011;13135;55.166;61.286;2023-05-10T11:53:38;9.45;;;7.25;;
25175;SDS011;13135;55.166;61.286;2023-05-10T11:56:23;11.68;;;7.65;;
25175;SDS011;13135;55.166;61.286;2023-05-10T11:59:08;11.25;;;7.85;;
25175;SDS011;13135;55.166;61.286;2023-05-10T12:01:57;11.75;;;7.22;;
25175;SDS011;13135;55.166;61.286;2023-05-10T12:04:45;11.00;;;7.75;;
25175;SDS011;13135;55.166;61.286;2023-05-10T12:07:32;9.23;;;7.05;;
25175;SDS011;13135;55.166;61.286;2023-05-10T12:10:17;9.70;;;7.00;;
25175;SDS011;13135;55.166;61.286;2023-05-10T12:13:02;10.57;;;7.30;;
25175;SDS011;13135;55.166;61.286;2023-05-10T12:15:47;10.85;;;7.03;;
25175;SDS011;13135;55.166;61.286;2023-05-10T12:18:34;9.32;;;6.90;;
25175;SDS011;13135;55.166;61.286;2023-05-10T12:21:19;13.10;;;10.02;;
25175;SDS011;13135;55.166;61.286;2023-05-10T12:24:05;9.48;;;7.32;;
25175;SDS011;13135;55.166;61.286;2023-05-10T12:26:51;10.93;;;7.95;;
25175;SDS011;13135;55.166;61.286;2023-05-10T12:29:43;13.82;;;7.25;;
25175;SDS011;13135;55.166;61.286;2023-05-10T12:32:37;11.38;;;7.37;;
25175;SDS011;13135;55.166;61.286;2023-05-10T12:35:30;12.52;;;8.60;;
25175;SDS011;13135;55.166;61.286;2023-05-10T12:41:16;9.68;;;7.90;;
25175;SDS011;13135;55.166;61.286;2023-05-10T12:44:01;11.15;;;7.57;;
25175;SDS011;13135;55.166;61.286;2023-05-10T12:46:49;10.60;;;7.32;;
25175;SDS011;13135;55.166;61.286;2023-05-10T12:49:34;13.68;;;7.70;;
25175;SDS011;13135;55.166;61.286;2023-05-10T12:52:21;10.07;;;7.32;;
25175;SDS011;13135;55.166;61.286;2023-05-10T12:55:06;15.98;;;6.97;;
25175;SDS011;13135;55.166;61.286;2023-05-10T12:57:51;11.98;;;7.65;;
25175;SDS011;13135;55.166;61.286;2023-05-10T13:00:36;10.95;;;7.50;;
25175;SDS011;13135;55.166;61.286;2023-05-10T13:03:21;10.32;;;7.60;;
25175;SDS011;13135;55.166;61.286;2023-05-10T13:06:07;10.63;;;7.53;;
25175;SDS011;13135;55.166;61.286;2023-05-10T13:08:54;10.77;;;7.18;;
25175;SDS011;13135;55.166;61.286;2023-05-10T13:11:41;10.73;;;7.50;;
25175;SDS011;13135;55.166;61.286;2023-05-10T13:14:27;9.05;;;7.20;;
25175;SDS011;13135;55.166;61.286;2023-05-10T13:17:11;17.12;;;8.38;;
25175;SDS011;13135;55.166;61.286;2023-05-10T13:19:57;14.90;;;7.18;;
25175;SDS011;13135;55.166;61.286;2023-05-10T13:22:41;11.68;;;7.60;;
25175;SDS011;13135;55.166;61.286;2023-05-10T13:25:24;9.85;;;7.57;;
25175;SDS011;13135;55.166;61.286;2023-05-10T13:28:10;9.35;;;7.43;;
25175;SDS011;13135;55.166;61.286;2023-05-10T13:30:56;10.20;;;7.12;;
25175;SDS011;13135;55.166;61.286;2023-05-10T13:33:42;11.48;;;7.62;;
25175;SDS011;13135;55.166;61.286;2023-05-10T13:36:29;11.45;;;7.32;;
25175;SDS011;13135;55.166;61.286;2023-05-10T13:39:16;10.20;;;7.65;;
25175;SDS011;13135;55.166;61.286;2023-05-10T13:41:59;15.88;;;7.57;;
25175;SDS011;13135;55.166;61.286;2023-05-10T13:44:44;12.95;;;7.57;;
25175;SDS011;13135;55.166;61.286;2023-05-10T13:47:37;15.10;;;7.93;;
25175;SDS011;13135;55.166;61.286;2023-05-10T13:50:32;10.95;;;7.60;;
25175;SDS011;13135;55.166;61.286;2023-05-10T13:53:17;12.37;;;7.95;;
25175;SDS011;13135;55.166;61.286;2023-05-10T13:56:03;14.40;;;8.02;;
25175;SDS011;13135;55.166;61.286;2023-05-10T13:58:56;11.82;;;7.35;;
25175;SDS011;13135;55.166;61.286;2023-05-10T14:01:53;14.55;;;7.30;;
25175;SDS011;13135;55.166;61.286;2023-05-10T14:04:41;12.90;;;7.62;;
25175;SDS011;13135;55.166;61.286;2023-05-10T14:07:29;12.80;;;7.25;;
25175;SDS011;13135;55.166;61.286;2023-05-10T14:10:24;16.87;;;7.60;;
25175;SDS011;13135;55.166;61.286;2023-05-10T14:13:11;15.05;;;8.27;;
25175;SDS011;13135;55.166;61.286;2023-05-10T14:15:59;16.65;;;8.30;;
25175;SDS011;13135;55.166;61.286;2023-05-10T14:18:46;12.77;;;8.38;;
25175;SDS011;13135;55.166;61.286;2023-05-10T14:21:33;13.40;;;7.72;;
25175;SDS011;13135;55.166;61.286;2023-05-10T14:24:17;13.57;;;8.40;;
25175;SDS011;13135;55.166;61.286;2023-05-10T14:27:04;13.60;;;9.18;;
25175;SDS011;13135;55.166;61.286;2023-05-10T14:29:51;14.60;;;9.32;;
25175;SDS011;13135;55.166;61.286;2023-05-10T14:35:27;13.62;;;7.97;;
25175;SDS011;13135;55.166;61.286;2023-05-10T14:38:14;12.75;;;8.70;;
25175;SDS011;13135;55.166;61.286;2023-05-10T14:41:07;12.85;;;8.65;;
25175;SDS011;13135;55.166;61.286;2023-05-10T14:46:45;12.90;;;8.07;;
25175;SDS011;13135;55.166;61.286;2023-05-10T14:49:29;11.98;;;8.25;;
25175;SDS011;13135;55.166;61.286;2023-05-10T14:52:21;14.65;;;8.50;;
25175;SDS011;13135;55.166;61.286;2023-05-10T14:55:08;15.30;;;8.85;;
25175;SDS011;13135;55.166;61.286;2023-05-10T14:57:59;11.82;;;8.43;;
25175;SDS011;13135;55.166;61.286;2023-05-10T15:00:46;14.77;;;9.23;;
25175;SDS011;13135;55.166;61.286;2023-05-10T15:03:32;17.58;;;8.13;;
25175;SDS011;13135;55.166;61.286;2023-05-10T15:06:30;15.85;;;8.85;;
25175;SDS011;13135;55.166;61.286;2023-05-10T15:09:16;13.15;;;8.52;;
25175;SDS011;13135;55.166;61.286;2023-05-10T15:12:03;15.73;;;9.25;;
25175;SDS011;13135;55.166;61.286;2023-05-10T15:14:48;15.80;;;9.48;;
25175;SDS011;13135;55.166;61.286;2023-05-10T15:17:35;17.85;;;10.07;;
25175;SDS011;13135;55.166;61.286;2023-05-10T15:20:19;13.57;;;9.52;;
25175;SDS011;13135;55.166;61.286;2023-05-10T15:23:05;15.52;;;10.02;;
25175;SDS011;13135;55.166;61.286;2023-05-10T15:25:51;17.65;;;9.68;;
25175;SDS011;13135;55.166;61.286;2023-05-10T15:28:36;15.35;;;9.65;;
25175;SDS011;13135;55.166;61.286;2023-05-10T15:31:20;16.27;;;10.35;;
25175;SDS011;13135;55.166;61.286;2023-05-10T15:34:06;16.73;;;10.05;;
25175;SDS011;13135;55.166;61.286;2023-05-10T15:36:50;16.67;;;9.88;;
25175;SDS011;13135;55.166;61.286;2023-05-10T15:50:06;18.90;;;12.37;;
25175;SDS011;13135;55.166;61.286;2023-05-10T15:52:51;25.02;;;16.05;;
25175;SDS011;13135;55.166;61.286;2023-05-10T15:55:36;17.50;;;11.18;;
25175;SDS011;13135;55.166;61.286;2023-05-10T15:58:22;18.40;;;11.12;;
25175;SDS011;13135;55.166;61.286;2023-05-10T16:01:04;21.65;;;11.10;;
25175;SDS011;13135;55.166;61.286;2023-05-10T16:03:51;19.30;;;12.68;;
25175;SDS011;13135;55.166;61.286;2023-05-10T16:06:36;18.80;;;11.23;;
25175;SDS011;13135;55.166;61.286;2023-05-10T16:09:22;19.42;;;11.60;;
25175;SDS011;13135;55.166;61.286;2023-05-10T16:12:09;15.88;;;10.82;;
25175;SDS011;13135;55.166;61.286;2023-05-10T16:14:56;20.17;;;12.77;;
25175;SDS011;13135;55.166;61.286;2023-05-10T16:17:39;15.85;;;10.98;;
25175;SDS011;13135;55.166;61.286;2023-05-10T16:20:26;17.45;;;11.65;;
25175;SDS011;13135;55.166;61.286;2023-05-10T16:23:12;18.17;;;11.52;;
25175;SDS011;13135;55.166;61.286;2023-05-10T16:29:03;17.58;;;11.10;;
25175;SDS011;13135;55.166;61.286;2023-05-10T16:34:43;19.85;;;10.85;;
25175;SDS011;13135;55.166;61.286;2023-05-10T16:37:30;20.52;;;11.07;;
25175;SDS011;13135;55.166;61.286;2023-05-10T16:40:16;17.50;;;10.85;;
25175;SDS011;13135;55.166;61.286;2023-05-10T16:43:08;16.77;;;9.82;;
25175;SDS011;13135;55.166;61.286;2023-05-10T16:45:52;19.00;;;12.63;;
25175;SDS011;13135;55.166;61.286;2023-05-10T16:48:45;19.17;;;11.32;;
25175;SDS011;13135;55.166;61.286;2023-05-10T16:51:40;15.80;;;10.50;;
25175;SDS011;13135;55.166;61.286;2023-05-10T16:54:27;17.17;;;11.07;;
25175;SDS011;13135;55.166;61.286;2023-05-10T16:57:12;17.73;;;10.43;;
25175;SDS011;13135;55.166;61.286;2023-05-10T16:59:58;14.18;;;10.10;;
25175;SDS011;13135;55.166;61.286;2023-05-10T17:02:45;17.40;;;10.25;;
25175;SDS011;13135;55.166;61.286;2023-05-10T17:05:31;18.80;;;10.80;;
25175;SDS011;13135;55.166;61.286;2023-05-10T17:08:18;18.27;;;10.03;;
25175;SDS011;13135;55.166;61.286;2023-05-10T17:11:03;15.83;;;10.73;;
25175;SDS011;13135;55.166;61.286;2023-05-10T17:13:47;15.40;;;10.17;;
25175;SDS011;13135;55.166;61.286;2023-05-10T17:16:39;17.05;;;11.18;;
25175;SDS011;13135;55.166;61.286;2023-05-10T17:19:23;17.27;;;10.80;;